Terminal Aerodrome Forecast
Issued by NWS Shreveport, LA

Home | Current Version | Previous Version | Text Only | Print | Product List | Glossary On
Versions: 1 2 3 4 5 6 7 8 9 10 11 12 13 14
274
FTUS44 KSHV 201724
TAFSHV
TAF
KSHV 201724Z 2018/2118 17007KT P6SM BKN280
     FM202200 17006KT P6SM SCT280
     FM210000 17003KT P6SM FEW280
     FM211200 17004KT P6SM BKN250
     FM211500 18006KT P6SM FEW030 BKN250=

USA.gov is the U.S. government's official web portal to all federal, state and local government web resources and services.